^^
Grace C. Lehan Memorial Weather Station Historical Data
Daily Summary for August 4, 2021 Units:  Metric    English   Both
Daily Weekly Monthly Yearly
  High: Low: Average:
Temperature: 26 °C 18.6 °C 21.8 °C
Dew Point: 21.9 °C 17.7 °C 19.3 °C
Humidity: 96% 69.6% 87%
Wind Speed: 4.8km/h 0km/h 0.3km/h
Wind Gust: 17.7km/h - -
Wind- - WSW
Pressure: 1011.7 hPa 1009 hPa -
Precipitation: 0.51 mm    
 
 
Tabular Data for August 4, 2021
Time Temperature Dew Point Pressure Wind Wind Speed Wind Gust Humidity Rainfall Rate (Hourly) solar
00:04 19.1 °C 18.1 °C 1011.7 hPa Calm     94% 0 mm 0 W/m2
00:09 19.1 °C 18.1 °C 1011.7 hPa Calm     94% 0 mm 0 W/m2
00:14 19 °C 18 °C 1011.7 hPa SW 0.2 km/h 3.2 km/h 94% 0 mm 0 W/m2
00:19 19 °C 18 °C 1011.7 hPa Calm   3.2 km/h 94% 0 mm 0 W/m2
00:24 18.9 °C 18.1 °C 1011.7 hPa Calm   3.2 km/h 94.6% 0 mm 0 W/m2
00:29 18.9 °C 18.1 °C 1011.7 hPa Calm   3.2 km/h 94.9% 0 mm 0 W/m2
00:34 18.9 °C 17.9 °C 1011.7 hPa Calm   3.2 km/h 94% 0 mm 0 W/m2
00:39 18.8 °C 17.9 °C 1011.7 hPa SW 0.2 km/h 3.2 km/h 94.2% 0 mm 0 W/m2
00:44 18.8 °C 18 °C 1011.7 hPa SW 0.2 km/h 3.2 km/h 95% 0 mm 0 W/m2
00:49 18.8 °C 18 °C 1011.7 hPa Calm   3.2 km/h 95% 0 mm 0 W/m2
00:54 18.8 °C 17.9 °C 1011.7 hPa Calm   3.2 km/h 95% 0 mm 0 W/m2
00:59 18.8 °C 17.9 °C 1011.7 hPa Calm   3.2 km/h 95% 0 mm 0 W/m2
01:04 18.8 °C 17.9 °C 1011.7 hPa SW 0.2 km/h 4.8 km/h 95% 0 mm 0 W/m2
01:09 18.7 °C 17.9 °C 1011.7 hPa Calm   4.8 km/h 95% 0 mm 0 W/m2
01:14 18.7 °C 17.9 °C 1011.7 hPa SW 0.2 km/h 6.4 km/h 95% 0 mm 0 W/m2
01:19 18.7 °C 17.9 °C 1011.4 hPa SW 0.2 km/h 6.4 km/h 95% 0 mm 0 W/m2
01:24 18.7 °C 17.8 °C 1011.4 hPa Calm   6.4 km/h 95% 0 mm 0 W/m2
01:29 18.7 °C 17.8 °C 1011.4 hPa SW 0.2 km/h 9.7 km/h 95% 0 mm 0 W/m2
01:34 18.6 °C 17.8 °C 1011.7 hPa Calm   9.7 km/h 95% 0 mm 0 W/m2
01:39 18.6 °C 17.8 °C 1011.7 hPa SW 0.2 km/h 3.2 km/h 95% 0 mm 0 W/m2
01:44 18.6 °C 17.8 °C 1011.7 hPa Calm   3.2 km/h 95% 0 mm 0 W/m2
01:49 18.6 °C 17.8 °C 1011.7 hPa Calm   3.2 km/h 95% 0 mm 0 W/m2
01:54 18.6 °C 17.8 °C 1011.4 hPa Calm   3.2 km/h 95% 0 mm 0 W/m2
01:59 18.6 °C 17.7 °C 1011.4 hPa Calm   3.2 km/h 95% 0 mm 0 W/m2
02:04 18.6 °C 17.7 °C 1011.4 hPa Calm   3.2 km/h 95% 0 mm 0 W/m2
02:09 18.6 °C 17.7 °C 1011.4 hPa Calm     95% 0 mm 0 W/m2
02:14 18.6 °C 17.8 °C 1011.4 hPa Calm     95% 0 mm 0 W/m2
02:19 18.6 °C 17.8 °C 1011.1 hPa Calm     95% 0 mm 0 W/m2
02:24 18.6 °C 17.8 °C 1011.4 hPa Calm     95% 0 mm 0 W/m2
02:29 18.6 °C 17.8 °C 1011.4 hPa Calm     95% 0 mm 0 W/m2
02:34 18.6 °C 17.8 °C 1011.4 hPa Calm     95% 0 mm 0 W/m2
02:39 18.7 °C 17.8 °C 1011.1 hPa Calm     95% 0 mm 0 W/m2
02:44 18.7 °C 17.9 °C 1011.1 hPa Calm     95% 0 mm 0 W/m2
02:49 18.7 °C 17.9 °C 1011.1 hPa Calm     95% 0 mm 0 W/m2
02:54 18.8 °C 17.9 °C 1011.1 hPa Calm     95% 0 mm 0 W/m2
02:59 18.8 °C 18 °C 1011.1 hPa Calm     95% 0 mm 0 W/m2
03:04 18.8 °C 18 °C 1011.1 hPa Calm     95% 0 mm 0 W/m2
03:09 18.9 °C 18.1 °C 1011.1 hPa Calm     95% 0 mm 0 W/m2
03:14 18.9 °C 18.1 °C 1011.1 hPa Calm     95% 0 mm 0 W/m2
03:19 18.9 °C 18.1 °C 1011.1 hPa Calm     95% 0 mm 0 W/m2
03:24 18.9 °C 18.1 °C 1011.1 hPa Calm     95% 0 mm 0 W/m2
03:29 18.9 °C 18.1 °C 1011.1 hPa Calm     95% 0 mm 0 W/m2
03:34 18.9 °C 18.1 °C 1011.1 hPa Calm     95% 0 mm 0 W/m2
03:39 18.9 °C 18.1 °C 1010.7 hPa Calm   3.2 km/h 95% 0 mm 0 W/m2
03:44 18.9 °C 18.1 °C 1011.1 hPa Calm   3.2 km/h 95% 0 mm 0 W/m2
03:49 19 °C 18.2 °C 1011.1 hPa Calm   3.2 km/h 95% 0 mm 0 W/m2
03:54 19 °C 18.2 °C 1011.1 hPa Calm   3.2 km/h 95% 0 mm 0 W/m2
03:59 19.1 °C 18.2 °C 1011.1 hPa SW 0.2 km/h 3.2 km/h 95% 0 mm 0 W/m2
04:00 19.1 °C 18.2 °C 1011.1 hPa Calm   3.2 km/h 95% 0 mm 0 W/m2
04:09 19.1 °C 18.2 °C 1011.1 hPa Calm     95% 0 mm 0 W/m2
04:14 19.1 °C 18.3 °C 1011.1 hPa Calm     95% 0 mm 0 W/m2
04:19 19.1 °C 18.3 °C 1011.1 hPa Calm     95% 0 mm 0 W/m2
04:24 19.1 °C 18.3 °C 1011.1 hPa Calm     95% 0 mm 0 W/m2
04:29 19.1 °C 18.3 °C 1011.1 hPa Calm     95% 0 mm 0 W/m2
04:34 19.1 °C 18.3 °C 1011.4 hPa Calm     95% 0 mm 0 W/m2
04:39 19.2 °C 18.3 °C 1011.4 hPa Calm     95% 0 mm 0 W/m2
04:44 19.2 °C 18.3 °C 1011.1 hPa Calm     95% 0 mm 0 W/m2
04:49 19.2 °C 18.3 °C 1011.1 hPa Calm     95% 0 mm 0 W/m2
04:54 19.1 °C 18.3 °C 1011.1 hPa Calm     95% 0 mm 0 W/m2
04:59 19.1 °C 18.3 °C 1011.1 hPa Calm     95% 0 mm 0 W/m2
05:04 19.1 °C 18.2 °C 1011.1 hPa Calm     95% 0 mm 0 W/m2
05:09 19.1 °C 18.2 °C 1011.1 hPa Calm     95% 0 mm 0 W/m2
05:14 19 °C 18.2 °C 1011.1 hPa Calm     95% 0 mm 0 W/m2
05:19 19 °C 18.2 °C 1011.1 hPa Calm     95% 0 mm 0 W/m2
05:24 19 °C 18.2 °C 1011.1 hPa Calm     95% 0 mm 0 W/m2
05:29 19 °C 18.2 °C 1011.1 hPa Calm     95% 0 mm 5 W/m2
05:34 19 °C 18.2 °C 1011.1 hPa Calm     95% 0 mm 7 W/m2
05:39 19 °C 18.2 °C 1011.1 hPa Calm     95% 0 mm 11 W/m2
05:44 19 °C 18.2 °C 1011.1 hPa Calm     95% 0 mm 14 W/m2
05:49 19 °C 18.2 °C 1011.1 hPa Calm     95% 0 mm 18 W/m2
05:54 19 °C 18.2 °C 1010.7 hPa Calm     95% 0 mm 18 W/m2
05:59 18.9 °C 18.2 °C 1011.1 hPa Calm     95% 0 mm 28 W/m2
06:04 19 °C 18.2 °C 1011.1 hPa Calm     95% 0 mm 40 W/m2
06:09 19.1 °C 18.2 °C 1011.1 hPa Calm     95.1% 0 mm 42 W/m2
06:14 19.1 °C 18.4 °C 1011.1 hPa Calm     96% 0 mm 40 W/m2
06:19 19.2 °C 18.5 °C 1011.1 hPa Calm     96% 0 mm 40 W/m2
06:24 19.2 °C 18.6 °C 1011.1 hPa Calm     96% 0 mm 40 W/m2
06:29 19.3 °C 18.6 °C 1011.1 hPa Calm     96% 0 mm 51 W/m2
06:34 19.3 °C 18.7 °C 1011.1 hPa Calm     96% 0 mm 51 W/m2
06:39 19.3 °C 18.7 °C 1011.1 hPa Calm     96% 0 mm 62 W/m2
06:44 19.4 °C 18.7 °C 1011.1 hPa Calm     96% 0 mm 60 W/m2
06:49 19.4 °C 18.8 °C 1011.4 hPa Calm     96% 0 mm 74 W/m2
06:54 19.5 °C 18.8 °C 1011.4 hPa Calm     96% 0 mm 79 W/m2
06:59 19.6 °C 18.9 °C 1011.4 hPa Calm     96% 0 mm 77 W/m2
07:04 19.6 °C 18.9 °C 1011.4 hPa Calm     96% 0 mm 79 W/m2
07:09 19.7 °C 19 °C 1011.4 hPa Calm     96% 0 mm 109 W/m2
07:14 19.7 °C 19.1 °C 1011.4 hPa Calm     96% 0 mm 118 W/m2
07:19 19.8 °C 19.2 °C 1011.1 hPa Calm     96% 0 mm 153 W/m2
07:24 19.9 °C 19.2 °C 1011.1 hPa Calm     96% 0 mm 237 W/m2
07:29 20.1 °C 19.4 °C 1011.1 hPa Calm     96% 0 mm 237 W/m2
07:34 20.2 °C 19.6 °C 1011.1 hPa Calm     96% 0 mm 169 W/m2
07:39 20.3 °C 19.6 °C 1011.1 hPa Calm     95.5% 0 mm 197 W/m2
07:44 20.4 °C 19.6 °C 1011.1 hPa Calm     95% 0 mm 167 W/m2
07:49 20.6 °C 19.8 °C 1011.1 hPa Calm     95% 0 mm 221 W/m2
07:54 20.8 °C 19.9 °C 1011.4 hPa SW 0.2 km/h 3.2 km/h 94.7% 0 mm 221 W/m2
07:59 20.8 °C 19.8 °C 1011.4 hPa Calm   3.2 km/h 94% 0 mm 179 W/m2
08:04 21 °C 19.8 °C 1011.1 hPa Calm     93% 0 mm 186 W/m2
08:09 21.1 °C 19.8 °C 1011.4 hPa Calm     92.8% 0 mm 186 W/m2
08:14 21.1 °C 19.8 °C 1011.4 hPa Calm     92% 0 mm 183 W/m2
08:19 21.2 °C 19.9 °C 1011.4 hPa Calm   1.6 km/h 91.9% 0 mm 167 W/m2
08:23 21.3 °C 19.8 °C 1011.4 hPa Calm   1.6 km/h 91% 0 mm 105 W/m2
08:29 21.4 °C 19.8 °C 1011.4 hPa Calm   1.6 km/h 91% 0 mm 97 W/m2
08:34 21.4 °C 19.9 °C 1011.4 hPa Calm   1.6 km/h 91% 0 mm 74 W/m2
08:39 21.4 °C 19.9 °C 1011.4 hPa Calm     90.8% 0 mm 125 W/m2
08:44 21.5 °C 19.8 °C 1011.4 hPa Calm     90% 0 mm 178 W/m2
08:49 21.6 °C 19.8 °C 1011.7 hPa Calm     90% 0 mm 227 W/m2
08:54 21.7 °C 19.9 °C 1011.4 hPa Calm     90% 0 mm 353 W/m2
08:59 21.8 °C 20 °C 1011.4 hPa Calm   1.6 km/h 89.7% 0 mm 353 W/m2
09:04 21.9 °C 20 °C 1011.4 hPa Calm   1.6 km/h 88.9% 0 mm 285 W/m2
09:09 22.1 °C 20.1 °C 1011.7 hPa Calm     88.9% 0 mm 234 W/m2
09:14 22.2 °C 20.1 °C 1011.4 hPa Calm   1.6 km/h 88% 0 mm 179 W/m2
09:19 22.3 °C 20.1 °C 1011.7 hPa Calm   1.6 km/h 87.6% 0 mm 255 W/m2
09:24 22.3 °C 20.1 °C 1011.7 hPa Calm   1.6 km/h 87% 0 mm 199 W/m2
09:29 22.5 °C 20.2 °C 1011.4 hPa Calm   1.6 km/h 87% 0 mm 216 W/m2
09:34 22.6 °C 20.3 °C 1011.4 hPa Calm   1.6 km/h 86.9% 0 mm 272 W/m2
09:39 22.7 °C 20.4 °C 1011.4 hPa SSW 0.2 km/h 3.2 km/h 86.5% 0 mm 211 W/m2
09:44 22.9 °C 20.3 °C 1011.4 hPa Calm   3.2 km/h 85.5% 0 mm 160 W/m2
09:49 22.9 °C 20.2 °C 1011.4 hPa SSW 0.2 km/h 4.8 km/h 84.3% 0 mm 162 W/m2
09:54 22.9 °C 19.9 °C 1011.4 hPa SSW 0.2 km/h 4.8 km/h 83.2% 0 mm 144 W/m2
09:59 23 °C 19.9 °C 1011.4 hPa Calm   4.8 km/h 83% 0 mm 144 W/m2
10:04 23 °C 19.9 °C 1011.4 hPa Calm   4.8 km/h 83% 0 mm 148 W/m2
10:09 23 °C 20 °C 1011.4 hPa Calm     83.2% 0 mm 132 W/m2
10:14 23.1 °C 20 °C 1011.4 hPa Calm     83% 0 mm 225 W/m2
10:19 23.1 °C 20.1 °C 1011.4 hPa Calm   1.6 km/h 83% 0 mm 248 W/m2
10:24 23.2 °C 20.1 °C 1011.4 hPa Calm   1.6 km/h 82.8% 0 mm 311 W/m2
10:29 23.3 °C 20.1 °C 1011.4 hPa SW 0.5 km/h 8 km/h 82% 0 mm 276 W/m2
10:34 23.4 °C 20.3 °C 1011.4 hPa SW 0.2 km/h 8 km/h 82.5% 0 mm 255 W/m2
10:39 23.6 °C 20.3 °C 1011.4 hPa Calm   4.8 km/h 82.1% 0 mm 234 W/m2
10:43 23.7 °C 20.4 °C 1011.1 hPa Calm   4.8 km/h 81.9% 0 mm 227 W/m2
11:00 24.1 °C 20.2 °C 1011.1 hPa Calm   4.8 km/h 79% 0 mm 258 W/m2
11:30 24.4 °C 20.6 °C 1011.4 hPa Calm   4.8 km/h 79% 0 mm 269 W/m2
12:04 24.7 °C 20.8 °C 1011.4 hPa Calm   4.8 km/h 79% 0 mm 397 W/m2
12:09 24.7 °C 21 °C 1010.7 hPa SSW 0.2 km/h 4.8 km/h 79.7% 0 mm 506 W/m2
12:14 24.8 °C 20.9 °C 1010.7 hPa SSW 0.5 km/h 4.8 km/h 79% 0 mm 513 W/m2
12:19 24.9 °C 20.9 °C 1010.4 hPa SSW 0.3 km/h 4.8 km/h 78.3% 0 mm 663 W/m2
12:24 25.1 °C 21 °C 1010.4 hPa SSW 0.6 km/h 6.4 km/h 78.2% 0 mm 765 W/m2
12:29 25.2 °C 21.1 °C 1010.4 hPa South 0.2 km/h 6.4 km/h 78.2% 0 mm 763 W/m2
12:34 25.3 °C 21 °C 1010 hPa SSW 0.3 km/h 6.4 km/h 76.8% 0 mm 659 W/m2
12:39 25.5 °C 20.9 °C 1010 hPa SSW 0.3 km/h 6.4 km/h 75.7% 0 mm 701 W/m2
12:44 25.6 °C 21.1 °C 1010 hPa SSW 1.8 km/h 11.3 km/h 76% 0 mm 673 W/m2
12:49 25.6 °C 21 °C 1010 hPa SSW 0.6 km/h 11.3 km/h 75.6% 0 mm 673 W/m2
12:54 25.6 °C 21.1 °C 1010 hPa SW 0.3 km/h 11.3 km/h 76.1% 0 mm 496 W/m2
12:59 25.6 °C 21.2 °C 1010 hPa Calm   11.3 km/h 76.3% 0 mm 496 W/m2
13:04 25.7 °C 21.2 °C 1010 hPa SW 0.6 km/h 6.4 km/h 76.1% 0 mm 490 W/m2
13:09 25.8 °C 20.9 °C 1010 hPa SW 0.8 km/h 8 km/h 74.4% 0 mm 371 W/m2
13:14 25.9 °C 20.9 °C 1010 hPa SW 1.3 km/h 8 km/h 74.1% 0 mm 373 W/m2
13:19 26 °C 20.8 °C 1010 hPa Calm   8 km/h 73% 0 mm 364 W/m2
13:24 26 °C 20.7 °C 1010 hPa West 0.3 km/h 8 km/h 72.5% 0 mm 360 W/m2
13:29 25.9 °C 20.5 °C 1010 hPa Calm   8 km/h 72% 0 mm 239 W/m2
13:34 25.8 °C 20.7 °C 1009.7 hPa West 0.8 km/h 8 km/h 73.3% 0 mm 265 W/m2
13:39 25.8 °C 20.7 °C 1010 hPa WSW 0.2 km/h 6.4 km/h 73.5% 0 mm 302 W/m2
13:44 25.8 °C 20.9 °C 1010 hPa WSW 0.3 km/h 6.4 km/h 74.4% 0 mm 271 W/m2
13:49 25.8 °C 20.9 °C 1010 hPa WSW 1 km/h 6.4 km/h 74.6% 0 mm 283 W/m2
13:54 25.8 °C 21.1 °C 1010 hPa WSW 0.5 km/h 6.4 km/h 75.5% 0 mm 302 W/m2
13:59 25.8 °C 20.8 °C 1010 hPa SW 1.8 km/h 12.9 km/h 73.9% 0 mm 271 W/m2
14:04 25.8 °C 19.9 °C 1010 hPa WSW 1.8 km/h 14.5 km/h 70.1% 0 mm 248 W/m2
14:09 25.7 °C 19.7 °C 1010 hPa West 3.9 km/h 14.5 km/h 69.6% 0 mm 232 W/m2
14:14 25.6 °C 19.8 °C 1010 hPa WNW 1.3 km/h 14.5 km/h 70.4% 0 mm 223 W/m2
14:19 25.6 °C 20 °C 1009.7 hPa WNW 2.6 km/h 14.5 km/h 71.4% 0 mm 229 W/m2
14:24 25.4 °C 19.7 °C 1010 hPa WNW 4.8 km/h 17.7 km/h 70.3% 0 mm 346 W/m2
14:29 25.3 °C 19.7 °C 1010 hPa WNW 3.9 km/h 17.7 km/h 71.3% 0 mm 554 W/m2
14:34 25.2 °C 19.8 °C 1010 hPa WNW 1.9 km/h 17.7 km/h 72.2% 0 mm 554 W/m2
14:39 25.3 °C 20 °C 1009.7 hPa WNW 1.8 km/h 9.7 km/h 72.6% 0 mm 418 W/m2
14:44 25.3 °C 20 °C 1009.7 hPa WNW 2.7 km/h 9.7 km/h 72.2% 0 mm 279 W/m2
14:49 25.3 °C 20.4 °C 1009.7 hPa WNW 1.9 km/h 9.7 km/h 74.1% 0 mm 241 W/m2
14:54 25.3 °C 21.1 °C 1010 hPa WNW 2.1 km/h 9.7 km/h 77.5% 0.25 mm 227 W/m2
14:59 25.1 °C 21.2 °C 1009.7 hPa WNW 1.1 km/h 9.7 km/h 78.9% 0.25 mm 355 W/m2
15:04 24.8 °C 21 °C 1009.7 hPa WNW 0.5 km/h 9.7 km/h 79.3% 0.25 mm 315 W/m2
15:09 24.7 °C 21.1 °C 1009.7 hPa WNW 1 km/h 9.7 km/h 80.5% 0.25 mm 329 W/m2
15:14 24.6 °C 21.1 °C 1009.4 hPa WNW 0.6 km/h 9.7 km/h 81% 0.25 mm 230 W/m2
15:19 24.6 °C 21.2 °C 1009.7 hPa WNW 0.5 km/h 9.7 km/h 81.2% 0.25 mm 218 W/m2
15:24 24.7 °C 21.5 °C 1009.7 hPa Calm   9.7 km/h 82.5% 0.25 mm 181 W/m2
15:29 24.7 °C 21.5 °C 1009.7 hPa WNW 0.5 km/h 9.7 km/h 82.7% 0.51 mm 178 W/m2
15:34 24.7 °C 21.5 °C 1009.7 hPa Calm   9.7 km/h 82.7% 0.51 mm 195 W/m2
15:39 24.6 °C 21.4 °C 1009.4 hPa Calm   4.8 km/h 82.6% 0.51 mm 251 W/m2
15:44 24.7 °C 21.9 °C 1009.7 hPa WNW 0.3 km/h 4.8 km/h 84.5% 0.51 mm 912 W/m2
15:49 24.9 °C 21.8 °C 1009.4 hPa West 0.8 km/h 4.8 km/h 83.2% 0.51 mm 812 W/m2
15:54 25.1 °C 21.8 °C 1009.4 hPa West 0.6 km/h 6.4 km/h 81.7% 0.51 mm 603 W/m2
15:59 25.4 °C 21.4 °C 1009.4 hPa West 0.6 km/h 6.4 km/h 78.7% 0.51 mm 380 W/m2
16:04 25.6 °C 21.4 °C 1009.4 hPa Calm     77.8% 0.51 mm 621 W/m2
16:09 25.7 °C 21.4 °C 1009.4 hPa West 0.8 km/h 4.8 km/h 77.3% 0.51 mm 621 W/m2
16:14 25.7 °C 21.1 °C 1009.4 hPa WNW 4.5 km/h 9.7 km/h 75.6% 0.51 mm 192 W/m2
16:19 25.6 °C 20.9 °C 1009.4 hPa WNW 2.9 km/h 9.7 km/h 75.1% 0.51 mm 176 W/m2
16:24 25.5 °C 20.9 °C 1009 hPa WNW 2.9 km/h 14.5 km/h 75.9% 0.51 mm 179 W/m2
16:29 25.4 °C 20.7 °C 1009.4 hPa West 2.6 km/h 14.5 km/h 75.3% 0.51 mm 186 W/m2
16:34 25.3 °C 20.6 °C 1009.4 hPa Calm   14.5 km/h 75.3% 0.51 mm 186 W/m2
16:39 25.2 °C 20.8 °C 1009 hPa Calm     76.7% 0 mm 167 W/m2
16:44 25.1 °C 20.8 °C 1009.4 hPa Calm     76.8% 0 mm 176 W/m2
16:49 25.1 °C 20.9 °C 1009.4 hPa Calm     77.8% 0 mm 176 W/m2
16:54 25.1 °C 20.9 °C 1009.4 hPa Calm     78% 0 mm 178 W/m2
16:59 25.1 °C 21 °C 1009.4 hPa Calm     78.3% 0 mm 181 W/m2
17:04 25.1 °C 21 °C 1009.4 hPa Calm     78.3% 0 mm 181 W/m2
17:09 25.1 °C 20.9 °C 1009.4 hPa Calm     77.6% 0 mm 186 W/m2
17:14 25.1 °C 20.8 °C 1009.4 hPa Calm     77.2% 0 mm 185 W/m2
17:19 25.2 °C 20.7 °C 1009.4 hPa Calm     76.5% 0 mm 181 W/m2
17:24 25.2 °C 20.9 °C 1009.4 hPa Calm     77% 0 mm 176 W/m2
17:29 25.3 °C 21 °C 1009.4 hPa Calm     77.1% 0 mm 169 W/m2
17:34 25.4 °C 21.1 °C 1009.4 hPa Calm     77% 0 mm 162 W/m2
17:39 25.4 °C 20.8 °C 1009.4 hPa Calm     75.9% 0 mm 153 W/m2
17:44 25.3 °C 20.6 °C 1009.4 hPa Calm     75% 0 mm 151 W/m2
17:49 25.3 °C 20.2 °C 1009.4 hPa Calm     73.1% 0 mm 146 W/m2
17:54 25.3 °C 20.1 °C 1009.4 hPa Calm     72.7% 0 mm 139 W/m2
17:59 25.3 °C 20.3 °C 1009.4 hPa Calm     73.9% 0 mm 130 W/m2
18:03 25.3 °C 20.6 °C 1009.4 hPa Calm     75% 0 mm 113 W/m2
18:30 24.8 °C 19.4 °C 1009.7 hPa Calm     72% 0 mm 82 W/m2
19:00 23.8 °C 19.1 °C 1009.7 hPa Calm     75% 0 mm 73 W/m2
19:30 23.1 °C 18.6 °C 1009.7 hPa Calm   3.2 km/h 76% 0 mm 44 W/m2
20:04 22.8 °C 18.7 °C 1010.4 hPa Calm   3.2 km/h 77.8% 0 mm 44 W/m2
20:09 22.7 °C 18.7 °C 1010.4 hPa Calm   1.6 km/h 78% 0 mm 21 W/m2
20:14 22.6 °C 18.6 °C 1010.4 hPa Calm   1.6 km/h 78% 0 mm 16 W/m2
20:19 22.6 °C 18.6 °C 1010.4 hPa Calm   1.6 km/h 78% 0 mm 12 W/m2
20:24 22.5 °C 18.4 °C 1010.7 hPa Calm   1.6 km/h 78% 0 mm 7 W/m2
20:29 22.4 °C 18.3 °C 1010.7 hPa Calm   1.6 km/h 77.7% 0 mm 0 W/m2
20:34 22.3 °C 18.3 °C 1010.7 hPa Calm   1.6 km/h 77.8% 0 mm 0 W/m2
20:39 22.2 °C 18.2 °C 1010.7 hPa Calm     78% 0 mm 0 W/m2
20:44 22.2 °C 18.2 °C 1010.7 hPa Calm     78% 0 mm 0 W/m2
20:49 22.1 °C 18.2 °C 1010.7 hPa Calm     78.8% 0 mm 0 W/m2
20:54 22 °C 18.2 °C 1010.7 hPa Calm     79% 0 mm 0 W/m2
20:59 21.9 °C 18.3 °C 1010.7 hPa Calm     79.8% 0 mm 0 W/m2
21:04 21.8 °C 18.3 °C 1010.7 hPa Calm     80.6% 0 mm 0 W/m2
21:09 21.8 °C 18.3 °C 1010.7 hPa Calm     81% 0 mm 0 W/m2
21:14 21.7 °C 18.4 °C 1011.1 hPa Calm     81.5% 0 mm 0 W/m2
21:19 21.6 °C 18.4 °C 1011.1 hPa Calm     82.2% 0 mm 0 W/m2
21:24 21.6 °C 18.6 °C 1011.1 hPa Calm     83% 0 mm 0 W/m2
21:29 21.5 °C 18.6 °C 1011.1 hPa Calm     83.5% 0 mm 0 W/m2
21:34 21.4 °C 18.6 °C 1011.1 hPa Calm     84% 0 mm 0 W/m2
21:39 21.4 °C 18.6 °C 1011.1 hPa Calm     84.1% 0 mm 0 W/m2
21:44 21.3 °C 18.7 °C 1011.1 hPa Calm     85% 0 mm 0 W/m2
21:49 21.3 °C 18.7 °C 1011.1 hPa Calm     85.2% 0 mm 0 W/m2
21:54 21.2 °C 18.8 °C 1011.1 hPa Calm     86% 0 mm 0 W/m2
21:59 21.1 °C 18.7 °C 1011.1 hPa Calm     86% 0 mm 0 W/m2
22:04 21 °C 18.6 °C 1011.1 hPa Calm     86% 0 mm 0 W/m2
22:09 20.9 °C 18.6 °C 1011.4 hPa Calm     86.6% 0 mm 0 W/m2
22:14 20.8 °C 18.6 °C 1011.4 hPa Calm     87% 0 mm 0 W/m2
22:19 20.8 °C 18.6 °C 1011.4 hPa Calm     87.2% 0 mm 0 W/m2
22:24 20.7 °C 18.7 °C 1011.4 hPa Calm     88% 0 mm 0 W/m2
22:29 20.7 °C 18.7 °C 1011.4 hPa Calm     88.3% 0 mm 0 W/m2
22:34 20.7 °C 18.8 °C 1011.4 hPa Calm     89% 0 mm 0 W/m2
22:39 20.6 °C 18.8 °C 1011.4 hPa Calm     89.6% 0 mm 0 W/m2
22:44 20.6 °C 18.9 °C 1011.1 hPa Calm     90% 0 mm 0 W/m2
22:49 20.6 °C 18.9 °C 1011.1 hPa Calm     90.1% 0 mm 0 W/m2
22:54 20.5 °C 18.8 °C 1011.1 hPa Calm     90% 0 mm 0 W/m2
22:59 20.4 °C 18.9 °C 1011.1 hPa Calm     90.8% 0 mm 0 W/m2
23:04 20.4 °C 18.9 °C 1010.7 hPa Calm     91% 0 mm 0 W/m2
23:09 20.4 °C 18.8 °C 1010.7 hPa Calm     91% 0 mm 0 W/m2
23:14 20.3 °C 18.8 °C 1010.7 hPa Calm     91% 0 mm 0 W/m2
23:19 20.2 °C 18.7 °C 1010.7 hPa Calm     91% 0 mm 0 W/m2
23:24 20.2 °C 18.7 °C 1010.7 hPa Calm     91% 0 mm 0 W/m2
23:29 20.1 °C 18.6 °C 1010.7 hPa Calm     91.3% 0 mm 0 W/m2
23:34 20 °C 18.7 °C 1010.7 hPa Calm     92% 0 mm 0 W/m2
23:39 19.9 °C 18.6 °C 1010.7 hPa Calm     92% 0 mm 0 W/m2
23:44 19.9 °C 18.6 °C 1010.7 hPa Calm     92% 0 mm 0 W/m2
23:49 19.9 °C 18.6 °C 1010.7 hPa Calm     92% 0 mm 0 W/m2
23:54 19.8 °C 18.4 °C 1010.7 hPa Calm     92% 0 mm 0 W/m2
23:59 19.7 °C 18.3 °C 1010.7 hPa Calm     92% 0 mm 0 W/m2
Hartford County Weather
Compliments of Weather Underground - 4 mb